sensor_id;sensor_type;location;lat;lon;timestamp;P1;durP1;ratioP1;P2;durP2;ratioP2
14738;SDS011;7461;52.440;13.540;2023-09-12T00:01:31;23.65;;;22.13;;
14738;SDS011;7461;52.440;13.540;2023-09-12T00:03:58;27.65;;;25.48;;
14738;SDS011;7461;52.440;13.540;2023-09-12T00:06:25;26.88;;;24.70;;
14738;SDS011;7461;52.440;13.540;2023-09-12T00:08:53;24.17;;;22.30;;
14738;SDS011;7461;52.440;13.540;2023-09-12T00:11:20;26.48;;;24.00;;
14738;SDS011;7461;52.440;13.540;2023-09-12T00:13:51;25.23;;;23.42;;
14738;SDS011;7461;52.440;13.540;2023-09-12T00:16:19;26.27;;;24.20;;
14738;SDS011;7461;52.440;13.540;2023-09-12T00:18:54;25.15;;;23.45;;
14738;SDS011;7461;52.440;13.540;2023-09-12T00:21:22;25.05;;;23.27;;
14738;SDS011;7461;52.440;13.540;2023-09-12T00:23:49;25.80;;;24.00;;
14738;SDS011;7461;52.440;13.540;2023-09-12T00:26:18;26.15;;;23.80;;
14738;SDS011;7461;52.440;13.540;2023-09-12T00:28:46;24.95;;;23.15;;
14738;SDS011;7461;52.440;13.540;2023-09-12T00:31:13;25.48;;;23.67;;
14738;SDS011;7461;52.440;13.540;2023-09-12T00:33:41;24.83;;;23.17;;
14738;SDS011;7461;52.440;13.540;2023-09-12T00:36:10;25.00;;;23.25;;
14738;SDS011;7461;52.440;13.540;2023-09-12T00:38:37;24.30;;;22.58;;
14738;SDS011;7461;52.440;13.540;2023-09-12T00:41:05;25.50;;;23.52;;
14738;SDS011;7461;52.440;13.540;2023-09-12T00:43:32;26.17;;;24.15;;
14738;SDS011;7461;52.440;13.540;2023-09-12T00:46:01;25.15;;;23.35;;
14738;SDS011;7461;52.440;13.540;2023-09-12T00:48:32;26.23;;;24.23;;
14738;SDS011;7461;52.440;13.540;2023-09-12T00:51:00;25.88;;;23.60;;
14738;SDS011;7461;52.440;13.540;2023-09-12T00:53:32;25.60;;;23.90;;
14738;SDS011;7461;52.440;13.540;2023-09-12T00:55:59;24.58;;;22.65;;
14738;SDS011;7461;52.440;13.540;2023-09-12T00:58:28;25.05;;;23.35;;
14738;SDS011;7461;52.440;13.540;2023-09-12T01:00:56;27.15;;;25.25;;
14738;SDS011;7461;52.440;13.540;2023-09-12T01:03:24;25.15;;;23.45;;
14738;SDS011;7461;52.440;13.540;2023-09-12T01:05:52;27.60;;;25.67;;
14738;SDS011;7461;52.440;13.540;2023-09-12T01:08:20;26.88;;;24.83;;
14738;SDS011;7461;52.440;13.540;2023-09-12T01:10:49;28.75;;;26.25;;
14738;SDS011;7461;52.440;13.540;2023-09-12T01:13:19;25.85;;;23.88;;
14738;SDS011;7461;52.440;13.540;2023-09-12T01:15:46;25.95;;;24.23;;
14738;SDS011;7461;52.440;13.540;2023-09-12T01:18:13;28.20;;;26.23;;
14738;SDS011;7461;52.440;13.540;2023-09-12T01:20:42;27.35;;;25.60;;
14738;SDS011;7461;52.440;13.540;2023-09-12T01:23:21;29.23;;;27.23;;
14738;SDS011;7461;52.440;13.540;2023-09-12T01:26:09;29.65;;;27.67;;
14738;SDS011;7461;52.440;13.540;2023-09-12T01:28:42;30.17;;;27.52;;
14738;SDS011;7461;52.440;13.540;2023-09-12T01:31:12;27.02;;;24.90;;
14738;SDS011;7461;52.440;13.540;2023-09-12T01:33:41;28.13;;;26.17;;
14738;SDS011;7461;52.440;13.540;2023-09-12T01:36:12;29.00;;;27.05;;
14738;SDS011;7461;52.440;13.540;2023-09-12T01:38:39;29.23;;;27.20;;
14738;SDS011;7461;52.440;13.540;2023-09-12T01:41:07;28.92;;;26.40;;
14738;SDS011;7461;52.440;13.540;2023-09-12T01:43:38;26.70;;;24.88;;
14738;SDS011;7461;52.440;13.540;2023-09-12T01:46:07;28.75;;;26.67;;
14738;SDS011;7461;52.440;13.540;2023-09-12T01:48:37;29.30;;;26.98;;
14738;SDS011;7461;52.440;13.540;2023-09-12T01:51:05;27.45;;;25.25;;
14738;SDS011;7461;52.440;13.540;2023-09-12T01:53:33;30.55;;;28.33;;
14738;SDS011;7461;52.440;13.540;2023-09-12T01:56:03;27.30;;;25.10;;
14738;SDS011;7461;52.440;13.540;2023-09-12T01:58:31;25.92;;;24.23;;
14738;SDS011;7461;52.440;13.540;2023-09-12T02:01:01;30.13;;;27.67;;
14738;SDS011;7461;52.440;13.540;2023-09-12T02:03:32;27.95;;;26.05;;
14738;SDS011;7461;52.440;13.540;2023-09-12T02:06:01;28.60;;;26.40;;
14738;SDS011;7461;52.440;13.540;2023-09-12T02:08:31;28.35;;;26.35;;
14738;SDS011;7461;52.440;13.540;2023-09-12T02:10:58;28.65;;;26.48;;
14738;SDS011;7461;52.440;13.540;2023-09-12T02:13:28;28.33;;;26.38;;
14738;SDS011;7461;52.440;13.540;2023-09-12T02:16:00;27.63;;;25.83;;
14738;SDS011;7461;52.440;13.540;2023-09-12T02:18:32;27.80;;;25.90;;
14738;SDS011;7461;52.440;13.540;2023-09-12T02:20:59;28.10;;;26.10;;
14738;SDS011;7461;52.440;13.540;2023-09-12T02:23:27;29.83;;;27.83;;
14738;SDS011;7461;52.440;13.540;2023-09-12T02:25:57;29.08;;;27.25;;
14738;SDS011;7461;52.440;13.540;2023-09-12T02:28:24;29.05;;;26.75;;
14738;SDS011;7461;52.440;13.540;2023-09-12T02:30:55;28.30;;;26.17;;
14738;SDS011;7461;52.440;13.540;2023-09-12T02:33:24;29.45;;;27.20;;
14738;SDS011;7461;52.440;13.540;2023-09-12T02:35:54;29.65;;;27.42;;
14738;SDS011;7461;52.440;13.540;2023-09-12T02:38:24;29.92;;;27.77;;
14738;SDS011;7461;52.440;13.540;2023-09-12T02:40:52;29.92;;;27.55;;
14738;SDS011;7461;52.440;13.540;2023-09-12T02:43:21;29.10;;;27.10;;
14738;SDS011;7461;52.440;13.540;2023-09-12T02:45:48;28.02;;;25.95;;
14738;SDS011;7461;52.440;13.540;2023-09-12T02:48:20;27.05;;;25.13;;
14738;SDS011;7461;52.440;13.540;2023-09-12T02:50:48;28.35;;;26.40;;
14738;SDS011;7461;52.440;13.540;2023-09-12T02:53:17;28.25;;;26.15;;
14738;SDS011;7461;52.440;13.540;2023-09-12T02:55:45;29.50;;;27.40;;
14738;SDS011;7461;52.440;13.540;2023-09-12T02:58:12;30.63;;;28.42;;
14738;SDS011;7461;52.440;13.540;2023-09-12T03:00:40;28.23;;;26.40;;
14738;SDS011;7461;52.440;13.540;2023-09-12T03:03:09;28.55;;;26.73;;
14738;SDS011;7461;52.440;13.540;2023-09-12T03:05:57;29.08;;;26.95;;
14738;SDS011;7461;52.440;13.540;2023-09-12T03:08:29;28.88;;;26.77;;
14738;SDS011;7461;52.440;13.540;2023-09-12T03:10:57;28.45;;;26.58;;
14738;SDS011;7461;52.440;13.540;2023-09-12T03:13:25;29.33;;;27.30;;
14738;SDS011;7461;52.440;13.540;2023-09-12T03:15:55;29.02;;;26.80;;
14738;SDS011;7461;52.440;13.540;2023-09-12T03:18:24;29.65;;;27.42;;
14738;SDS011;7461;52.440;13.540;2023-09-12T03:20:51;28.02;;;26.13;;
14738;SDS011;7461;52.440;13.540;2023-09-12T03:23:19;28.02;;;26.20;;
14738;SDS011;7461;52.440;13.540;2023-09-12T03:25:48;31.02;;;28.83;;
14738;SDS011;7461;52.440;13.540;2023-09-12T03:28:15;32.05;;;29.73;;
14738;SDS011;7461;52.440;13.540;2023-09-12T03:30:45;32.35;;;30.33;;
14738;SDS011;7461;52.440;13.540;2023-09-12T03:33:17;30.55;;;28.35;;
14738;SDS011;7461;52.440;13.540;2023-09-12T03:35:44;28.88;;;26.73;;
14738;SDS011;7461;52.440;13.540;2023-09-12T03:38:11;32.53;;;30.23;;
14738;SDS011;7461;52.440;13.540;2023-09-12T03:40:41;32.13;;;30.08;;
14738;SDS011;7461;52.440;13.540;2023-09-12T03:43:09;30.95;;;28.85;;
14738;SDS011;7461;52.440;13.540;2023-09-12T03:45:37;31.95;;;29.40;;
14738;SDS011;7461;52.440;13.540;2023-09-12T03:48:04;30.88;;;28.67;;
14738;SDS011;7461;52.440;13.540;2023-09-12T03:50:32;29.45;;;27.42;;
14738;SDS011;7461;52.440;13.540;2023-09-12T03:52:59;30.48;;;28.48;;
14738;SDS011;7461;52.440;13.540;2023-09-12T03:55:27;30.45;;;27.75;;
14738;SDS011;7461;52.440;13.540;2023-09-12T03:57:54;28.67;;;26.67;;
14738;SDS011;7461;52.440;13.540;2023-09-12T04:00:24;28.55;;;26.48;;
14738;SDS011;7461;52.440;13.540;2023-09-12T04:02:52;29.50;;;27.42;;
14738;SDS011;7461;52.440;13.540;2023-09-12T04:05:24;28.65;;;26.48;;
14738;SDS011;7461;52.440;13.540;2023-09-12T04:07:51;28.92;;;26.75;;
14738;SDS011;7461;52.440;13.540;2023-09-12T04:13:09;29.42;;;27.13;;
14738;SDS011;7461;52.440;13.540;2023-09-12T04:15:56;29.58;;;27.63;;
14738;SDS011;7461;52.440;13.540;2023-09-12T04:18:38;32.15;;;30.15;;
14738;SDS011;7461;52.440;13.540;2023-09-12T04:21:08;29.23;;;27.33;;
14738;SDS011;7461;52.440;13.540;2023-09-12T04:23:43;31.60;;;29.33;;
14738;SDS011;7461;52.440;13.540;2023-09-12T04:26:45;29.20;;;27.40;;
14738;SDS011;7461;52.440;13.540;2023-09-12T04:29:15;29.73;;;27.77;;
14738;SDS011;7461;52.440;13.540;2023-09-12T04:37:23;28.52;;;26.42;;
14738;SDS011;7461;52.440;13.540;2023-09-12T04:40:24;30.52;;;28.27;;
14738;SDS011;7461;52.440;13.540;2023-09-12T04:45:41;31.17;;;28.92;;
14738;SDS011;7461;52.440;13.540;2023-09-12T04:48:25;30.13;;;28.05;;
14738;SDS011;7461;52.440;13.540;2023-09-12T04:51:22;30.35;;;28.13;;
14738;SDS011;7461;52.440;13.540;2023-09-12T04:57:10;29.38;;;27.50;;
14738;SDS011;7461;52.440;13.540;2023-09-12T04:59:41;29.73;;;27.63;;
14738;SDS011;7461;52.440;13.540;2023-09-12T05:07:39;29.92;;;27.92;;
14738;SDS011;7461;52.440;13.540;2023-09-12T05:10:34;26.90;;;24.90;;
14738;SDS011;7461;52.440;13.540;2023-09-12T05:16:05;32.42;;;29.88;;
14738;SDS011;7461;52.440;13.540;2023-09-12T05:18:37;32.40;;;30.30;;
14738;SDS011;7461;52.440;13.540;2023-09-12T05:21:06;30.15;;;27.75;;
14738;SDS011;7461;52.440;13.540;2023-09-12T05:23:33;28.95;;;27.15;;
14738;SDS011;7461;52.440;13.540;2023-09-12T05:26:03;31.67;;;29.48;;
14738;SDS011;7461;52.440;13.540;2023-09-12T05:28:31;31.10;;;28.63;;
14738;SDS011;7461;52.440;13.540;2023-09-12T05:30:58;31.70;;;29.50;;
14738;SDS011;7461;52.440;13.540;2023-09-12T05:33:29;29.33;;;27.00;;
14738;SDS011;7461;52.440;13.540;2023-09-12T05:35:58;29.60;;;27.75;;
14738;SDS011;7461;52.440;13.540;2023-09-12T05:38:30;29.83;;;27.70;;
14738;SDS011;7461;52.440;13.540;2023-09-12T05:41:11;30.02;;;27.73;;
14738;SDS011;7461;52.440;13.540;2023-09-12T05:43:40;30.58;;;28.42;;
14738;SDS011;7461;52.440;13.540;2023-09-12T05:46:18;29.15;;;27.25;;
14738;SDS011;7461;52.440;13.540;2023-09-12T05:51:44;30.30;;;28.10;;
14738;SDS011;7461;52.440;13.540;2023-09-12T05:54:11;29.95;;;27.80;;
14738;SDS011;7461;52.440;13.540;2023-09-12T05:56:40;31.20;;;28.88;;
14738;SDS011;7461;52.440;13.540;2023-09-12T05:59:08;32.70;;;30.40;;
14738;SDS011;7461;52.440;13.540;2023-09-12T06:01:36;31.33;;;29.48;;
14738;SDS011;7461;52.440;13.540;2023-09-12T06:04:05;30.20;;;27.85;;
14738;SDS011;7461;52.440;13.540;2023-09-12T06:06:32;28.42;;;26.42;;
14738;SDS011;7461;52.440;13.540;2023-09-12T06:08:59;33.40;;;31.13;;
14738;SDS011;7461;52.440;13.540;2023-09-12T06:11:27;30.85;;;28.90;;
14738;SDS011;7461;52.440;13.540;2023-09-12T06:13:56;30.63;;;28.48;;
14738;SDS011;7461;52.440;13.540;2023-09-12T06:16:23;27.73;;;25.88;;
14738;SDS011;7461;52.440;13.540;2023-09-12T06:18:54;28.50;;;26.63;;
14738;SDS011;7461;52.440;13.540;2023-09-12T06:21:26;30.05;;;27.95;;
14738;SDS011;7461;52.440;13.540;2023-09-12T06:24:07;28.77;;;26.88;;
14738;SDS011;7461;52.440;13.540;2023-09-12T06:26:35;30.85;;;28.60;;
14738;SDS011;7461;52.440;13.540;2023-09-12T06:29:02;29.17;;;27.38;;
14738;SDS011;7461;52.440;13.540;2023-09-12T06:31:29;30.25;;;27.83;;
14738;SDS011;7461;52.440;13.540;2023-09-12T06:33:56;30.95;;;28.65;;
14738;SDS011;7461;52.440;13.540;2023-09-12T06:36:25;28.20;;;26.30;;
14738;SDS011;7461;52.440;13.540;2023-09-12T06:38:54;27.25;;;25.65;;
14738;SDS011;7461;52.440;13.540;2023-09-12T06:41:22;28.13;;;26.30;;
14738;SDS011;7461;52.440;13.540;2023-09-12T06:43:49;29.35;;;26.83;;
14738;SDS011;7461;52.440;13.540;2023-09-12T06:46:16;26.60;;;25.00;;
14738;SDS011;7461;52.440;13.540;2023-09-12T06:48:44;25.40;;;23.70;;
14738;SDS011;7461;52.440;13.540;2023-09-12T06:51:11;27.35;;;25.33;;
14738;SDS011;7461;52.440;13.540;2023-09-12T06:53:40;26.17;;;24.10;;
14738;SDS011;7461;52.440;13.540;2023-09-12T06:56:07;25.23;;;23.38;;
14738;SDS011;7461;52.440;13.540;2023-09-12T06:58:35;24.40;;;22.48;;
14738;SDS011;7461;52.440;13.540;2023-09-12T07:01:02;23.25;;;21.40;;
14738;SDS011;7461;52.440;13.540;2023-09-12T07:03:31;21.85;;;20.42;;
14738;SDS011;7461;52.440;13.540;2023-09-12T07:05:58;20.92;;;19.38;;
14738;SDS011;7461;52.440;13.540;2023-09-12T07:08:26;22.05;;;20.60;;
14738;SDS011;7461;52.440;13.540;2023-09-12T07:10:55;21.20;;;19.70;;
14738;SDS011;7461;52.440;13.540;2023-09-12T07:13:22;20.90;;;19.30;;
14738;SDS011;7461;52.440;13.540;2023-09-12T07:15:49;18.15;;;16.52;;
14738;SDS011;7461;52.440;13.540;2023-09-12T07:18:17;21.02;;;19.58;;
14738;SDS011;7461;52.440;13.540;2023-09-12T07:20:45;26.10;;;23.75;;
14738;SDS011;7461;52.440;13.540;2023-09-12T07:23:12;21.13;;;19.52;;
14738;SDS011;7461;52.440;13.540;2023-09-12T07:25:40;20.45;;;18.83;;
14738;SDS011;7461;52.440;13.540;2023-09-12T07:28:09;20.23;;;18.63;;
14738;SDS011;7461;52.440;13.540;2023-09-12T07:30:37;19.83;;;18.50;;
14738;SDS011;7461;52.440;13.540;2023-09-12T07:33:04;18.40;;;17.27;;
14738;SDS011;7461;52.440;13.540;2023-09-12T07:35:32;17.67;;;16.45;;
14738;SDS011;7461;52.440;13.540;2023-09-12T07:37:59;17.48;;;16.05;;
14738;SDS011;7461;52.440;13.540;2023-09-12T07:40:27;16.98;;;15.77;;
14738;SDS011;7461;52.440;13.540;2023-09-12T07:42:55;18.77;;;17.25;;
14738;SDS011;7461;52.440;13.540;2023-09-12T07:45:24;17.90;;;16.38;;
14738;SDS011;7461;52.440;13.540;2023-09-12T07:47:53;15.68;;;14.30;;
14738;SDS011;7461;52.440;13.540;2023-09-12T07:50:21;18.17;;;16.52;;
14738;SDS011;7461;52.440;13.540;2023-09-12T07:52:48;17.00;;;15.63;;
14738;SDS011;7461;52.440;13.540;2023-09-12T07:55:16;15.45;;;14.00;;
14738;SDS011;7461;52.440;13.540;2023-09-12T07:57:43;16.30;;;14.88;;
14738;SDS011;7461;52.440;13.540;2023-09-12T08:00:19;19.15;;;17.40;;
14738;SDS011;7461;52.440;13.540;2023-09-12T08:02:50;14.68;;;13.23;;
14738;SDS011;7461;52.440;13.540;2023-09-12T08:05:17;16.60;;;14.88;;
14738;SDS011;7461;52.440;13.540;2023-09-12T08:07:45;17.30;;;15.80;;
14738;SDS011;7461;52.440;13.540;2023-09-12T08:10:14;15.23;;;14.05;;
14738;SDS011;7461;52.440;13.540;2023-09-12T08:12:42;15.70;;;14.60;;
14738;SDS011;7461;52.440;13.540;2023-09-12T08:15:10;16.40;;;14.63;;
14738;SDS011;7461;52.440;13.540;2023-09-12T08:17:38;14.98;;;13.70;;
14738;SDS011;7461;52.440;13.540;2023-09-12T08:20:07;14.52;;;13.23;;
14738;SDS011;7461;52.440;13.540;2023-09-12T08:22:36;15.13;;;13.75;;
14738;SDS011;7461;52.440;13.540;2023-09-12T08:25:03;14.77;;;13.52;;
14738;SDS011;7461;52.440;13.540;2023-09-12T08:27:32;14.77;;;13.60;;
14738;SDS011;7461;52.440;13.540;2023-09-12T08:29:59;16.25;;;15.00;;
14738;SDS011;7461;52.440;13.540;2023-09-12T08:32:27;14.93;;;13.20;;
14738;SDS011;7461;52.440;13.540;2023-09-12T08:34:55;13.27;;;12.00;;
14738;SDS011;7461;52.440;13.540;2023-09-12T08:37:24;14.15;;;11.43;;
14738;SDS011;7461;52.440;13.540;2023-09-12T08:39:52;12.90;;;11.93;;
14738;SDS011;7461;52.440;13.540;2023-09-12T08:42:23;16.05;;;14.60;;
14738;SDS011;7461;52.440;13.540;2023-09-12T08:44:54;13.52;;;12.18;;
14738;SDS011;7461;52.440;13.540;2023-09-12T08:47:23;13.52;;;12.52;;
14738;SDS011;7461;52.440;13.540;2023-09-12T08:49:52;13.93;;;12.82;;
14738;SDS011;7461;52.440;13.540;2023-09-12T08:52:21;13.52;;;12.23;;
14738;SDS011;7461;52.440;13.540;2023-09-12T08:54:58;16.83;;;12.13;;
14738;SDS011;7461;52.440;13.540;2023-09-12T08:57:31;13.10;;;11.82;;
14738;SDS011;7461;52.440;13.540;2023-09-12T09:00:00;18.10;;;13.40;;
14738;SDS011;7461;52.440;13.540;2023-09-12T09:02:32;13.63;;;12.43;;
14738;SDS011;7461;52.440;13.540;2023-09-12T09:05:04;14.73;;;13.27;;
14738;SDS011;7461;52.440;13.540;2023-09-12T09:07:34;14.35;;;13.02;;
14738;SDS011;7461;52.440;13.540;2023-09-12T09:10:09;12.98;;;10.35;;
14738;SDS011;7461;52.440;13.540;2023-09-12T09:12:39;14.73;;;12.00;;
14738;SDS011;7461;52.440;13.540;2023-09-12T09:15:22;17.20;;;11.95;;
14738;SDS011;7461;52.440;13.540;2023-09-12T09:17:51;11.52;;;10.02;;
14738;SDS011;7461;52.440;13.540;2023-09-12T09:20:22;12.73;;;9.50;;
14738;SDS011;7461;52.440;13.540;2023-09-12T09:23:01;13.02;;;10.63;;
14738;SDS011;7461;52.440;13.540;2023-09-12T09:25:39;13.20;;;10.20;;
14738;SDS011;7461;52.440;13.540;2023-09-12T09:28:19;14.63;;;10.70;;
14738;SDS011;7461;52.440;13.540;2023-09-12T09:30:51;12.52;;;11.25;;
14738;SDS011;7461;52.440;13.540;2023-09-12T09:33:23;10.73;;;9.65;;
14738;SDS011;7461;52.440;13.540;2023-09-12T09:36:01;13.00;;;10.75;;
14738;SDS011;7461;52.440;13.540;2023-09-12T09:38:33;12.30;;;10.68;;
14738;SDS011;7461;52.440;13.540;2023-09-12T09:41:05;10.77;;;9.95;;
14738;SDS011;7461;52.440;13.540;2023-09-12T09:43:33;11.63;;;9.85;;
14738;SDS011;7461;52.440;13.540;2023-09-12T09:46:03;10.43;;;9.45;;
14738;SDS011;7461;52.440;13.540;2023-09-12T09:48:31;12.07;;;9.13;;
14738;SDS011;7461;52.440;13.540;2023-09-12T09:51:03;15.48;;;9.80;;
14738;SDS011;7461;52.440;13.540;2023-09-12T09:53:38;14.57;;;9.95;;
14738;SDS011;7461;52.440;13.540;2023-09-12T09:56:10;17.05;;;10.88;;
14738;SDS011;7461;52.440;13.540;2023-09-12T09:58:42;15.45;;;10.27;;
14738;SDS011;7461;52.440;13.540;2023-09-12T10:01:37;13.20;;;10.50;;
14738;SDS011;7461;52.440;13.540;2023-09-12T10:04:07;15.35;;;10.55;;
14738;SDS011;7461;52.440;13.540;2023-09-12T10:07:01;12.68;;;8.68;;
14738;SDS011;7461;52.440;13.540;2023-09-12T10:09:33;14.48;;;9.70;;
14738;SDS011;7461;52.440;13.540;2023-09-12T10:12:06;12.88;;;10.35;;
14738;SDS011;7461;52.440;13.540;2023-09-12T10:14:38;15.02;;;11.18;;
14738;SDS011;7461;52.440;13.540;2023-09-12T10:17:06;11.35;;;10.20;;
14738;SDS011;7461;52.440;13.540;2023-09-12T10:19:38;13.02;;;10.80;;
14738;SDS011;7461;52.440;13.540;2023-09-12T10:22:09;14.10;;;10.98;;
14738;SDS011;7461;52.440;13.540;2023-09-12T10:25:04;14.52;;;10.43;;
14738;SDS011;7461;52.440;13.540;2023-09-12T10:28:01;10.63;;;9.23;;
14738;SDS011;7461;52.440;13.540;2023-09-12T10:30:32;12.77;;;11.43;;
14738;SDS011;7461;52.440;13.540;2023-09-12T10:33:03;13.63;;;12.20;;
14738;SDS011;7461;52.440;13.540;2023-09-12T10:35:30;16.25;;;10.80;;
14738;SDS011;7461;52.440;13.540;2023-09-12T10:37:59;12.07;;;10.77;;
14738;SDS011;7461;52.440;13.540;2023-09-12T10:52:56;16.50;;;12.93;;
14738;SDS011;7461;52.440;13.540;2023-09-12T10:55:39;20.80;;;12.02;;
14738;SDS011;7461;52.440;13.540;2023-09-12T10:58:12;18.00;;;13.23;;
14738;SDS011;7461;52.440;13.540;2023-09-12T11:00:39;15.63;;;13.65;;
14738;SDS011;7461;52.440;13.540;2023-09-12T11:05:56;14.88;;;12.48;;
14738;SDS011;7461;52.440;13.540;2023-09-12T11:08:25;16.35;;;14.63;;
14738;SDS011;7461;52.440;13.540;2023-09-12T11:14:04;14.20;;;12.48;;
14738;SDS011;7461;52.440;13.540;2023-09-12T11:16:33;16.23;;;14.35;;
14738;SDS011;7461;52.440;13.540;2023-09-12T11:19:11;12.30;;;11.30;;
14738;SDS011;7461;52.440;13.540;2023-09-12T11:21:49;21.30;;;11.57;;
14738;SDS011;7461;52.440;13.540;2023-09-12T11:24:22;16.70;;;13.27;;
14738;SDS011;7461;52.440;13.540;2023-09-12T11:26:58;19.60;;;14.85;;
14738;SDS011;7461;52.440;13.540;2023-09-12T11:29:35;18.83;;;11.88;;
14738;SDS011;7461;52.440;13.540;2023-09-12T11:32:04;10.95;;;9.95;;
14738;SDS011;7461;52.440;13.540;2023-09-12T11:34:41;13.00;;;11.80;;
14738;SDS011;7461;52.440;13.540;2023-09-12T11:37:22;12.52;;;11.02;;
14738;SDS011;7461;52.440;13.540;2023-09-12T11:40:21;22.52;;;13.98;;
14738;SDS011;7461;52.440;13.540;2023-09-12T11:42:54;15.77;;;14.07;;
14738;SDS011;7461;52.440;13.540;2023-09-12T11:45:22;12.77;;;11.48;;
14738;SDS011;7461;52.440;13.540;2023-09-12T11:47:50;11.60;;;9.43;;
14738;SDS011;7461;52.440;13.540;2023-09-12T11:50:33;12.57;;;10.27;;
14738;SDS011;7461;52.440;13.540;2023-09-12T11:53:04;13.73;;;9.35;;
14738;SDS011;7461;52.440;13.540;2023-09-12T11:55:34;14.05;;;8.68;;
14738;SDS011;7461;52.440;13.540;2023-09-12T11:58:03;13.90;;;10.13;;
14738;SDS011;7461;52.440;13.540;2023-09-12T12:00:33;16.02;;;10.30;;
14738;SDS011;7461;52.440;13.540;2023-09-12T12:03:07;11.63;;;10.15;;
14738;SDS011;7461;52.440;13.540;2023-09-12T12:05:37;11.68;;;10.27;;
14738;SDS011;7461;52.440;13.540;2023-09-12T12:08:06;14.10;;;10.55;;
14738;SDS011;7461;52.440;13.540;2023-09-12T12:10:35;12.13;;;10.15;;
14738;SDS011;7461;52.440;13.540;2023-09-12T12:13:04;15.93;;;10.75;;
14738;SDS011;7461;52.440;13.540;2023-09-12T12:15:33;12.43;;;10.82;;
14738;SDS011;7461;52.440;13.540;2023-09-12T12:18:02;14.10;;;10.90;;
14738;SDS011;7461;52.440;13.540;2023-09-12T12:20:42;14.25;;;11.02;;
14738;SDS011;7461;52.440;13.540;2023-09-12T12:23:27;17.38;;;11.32;;
14738;SDS011;7461;52.440;13.540;2023-09-12T12:26:07;12.75;;;11.48;;
14738;SDS011;7461;52.440;13.540;2023-09-12T12:28:54;12.27;;;10.95;;
14738;SDS011;7461;52.440;13.540;2023-09-12T12:31:21;12.07;;;10.98;;
14738;SDS011;7461;52.440;13.540;2023-09-12T12:33:55;12.93;;;11.75;;
14738;SDS011;7461;52.440;13.540;2023-09-12T12:36:29;13.05;;;10.95;;
14738;SDS011;7461;52.440;13.540;2023-09-12T12:38:57;13.43;;;11.63;;
14738;SDS011;7461;52.440;13.540;2023-09-12T12:41:26;15.57;;;11.95;;
14738;SDS011;7461;52.440;13.540;2023-09-12T12:43:56;13.38;;;11.13;;
14738;SDS011;7461;52.440;13.540;2023-09-12T12:46:28;15.80;;;11.35;;
14738;SDS011;7461;52.440;13.540;2023-09-12T12:48:58;11.85;;;10.75;;
14738;SDS011;7461;52.440;13.540;2023-09-12T12:51:35;13.18;;;11.80;;
14738;SDS011;7461;52.440;13.540;2023-09-12T12:54:13;12.45;;;11.32;;
14738;SDS011;7461;52.440;13.540;2023-09-12T12:56:47;19.25;;;13.05;;
14738;SDS011;7461;52.440;13.540;2023-09-12T12:59:15;13.60;;;12.02;;
14738;SDS011;7461;52.440;13.540;2023-09-12T13:01:43;13.00;;;11.45;;
14738;SDS011;7461;52.440;13.540;2023-09-12T13:04:14;11.13;;;10.13;;
14738;SDS011;7461;52.440;13.540;2023-09-12T13:06:46;13.13;;;9.93;;
14738;SDS011;7461;52.440;13.540;2023-09-12T13:09:13;11.30;;;10.15;;
14738;SDS011;7461;52.440;13.540;2023-09-12T13:11:56;12.27;;;10.25;;
14738;SDS011;7461;52.440;13.540;2023-09-12T13:14:30;11.43;;;10.18;;
14738;SDS011;7461;52.440;13.540;2023-09-12T13:16:57;10.63;;;9.73;;
14738;SDS011;7461;52.440;13.540;2023-09-12T13:19:25;10.73;;;9.60;;
14738;SDS011;7461;52.440;13.540;2023-09-12T13:21:52;11.30;;;10.27;;
14738;SDS011;7461;52.440;13.540;2023-09-12T13:24:21;10.65;;;9.65;;
14738;SDS011;7461;52.440;13.540;2023-09-12T13:26:56;11.98;;;11.05;;
14738;SDS011;7461;52.440;13.540;2023-09-12T13:29:30;10.82;;;9.88;;
14738;SDS011;7461;52.440;13.540;2023-09-12T13:32:06;11.82;;;10.98;;
14738;SDS011;7461;52.440;13.540;2023-09-12T13:34:38;12.07;;;10.95;;
14738;SDS011;7461;52.440;13.540;2023-09-12T13:37:05;11.60;;;10.50;;
14738;SDS011;7461;52.440;13.540;2023-09-12T13:39:33;16.02;;;11.10;;
14738;SDS011;7461;52.440;13.540;2023-09-12T13:42:05;11.15;;;10.02;;
14738;SDS011;7461;52.440;13.540;2023-09-12T13:44:38;13.55;;;11.43;;
14738;SDS011;7461;52.440;13.540;2023-09-12T13:47:16;16.92;;;10.40;;
14738;SDS011;7461;52.440;13.540;2023-09-12T13:49:47;11.50;;;10.32;;
14738;SDS011;7461;52.440;13.540;2023-09-12T13:52:17;11.50;;;10.57;;
14738;SDS011;7461;52.440;13.540;2023-09-12T13:54:47;14.70;;;9.50;;
14738;SDS011;7461;52.440;13.540;2023-09-12T13:57:15;13.35;;;10.48;;
14738;SDS011;7461;52.440;13.540;2023-09-12T13:59:44;14.90;;;10.40;;
14738;SDS011;7461;52.440;13.540;2023-09-12T14:02:12;11.50;;;9.68;;
14738;SDS011;7461;52.440;13.540;2023-09-12T14:04:42;11.63;;;9.52;;
14738;SDS011;7461;52.440;13.540;2023-09-12T14:07:10;10.93;;;10.13;;
14738;SDS011;7461;52.440;13.540;2023-09-12T14:09:38;13.55;;;10.70;;
14738;SDS011;7461;52.440;13.540;2023-09-12T14:12:06;11.50;;;10.30;;
14738;SDS011;7461;52.440;13.540;2023-09-12T14:14:38;11.73;;;10.82;;
14738;SDS011;7461;52.440;13.540;2023-09-12T14:17:07;11.45;;;10.02;;
14738;SDS011;7461;52.440;13.540;2023-09-12T14:19:53;11.75;;;9.95;;
14738;SDS011;7461;52.440;13.540;2023-09-12T14:22:40;10.68;;;9.77;;
14738;SDS011;7461;52.440;13.540;2023-09-12T14:25:51;11.25;;;10.07;;
14738;SDS011;7461;52.440;13.540;2023-09-12T14:28:34;13.13;;;10.38;;
14738;SDS011;7461;52.440;13.540;2023-09-12T14:33:28;12.38;;;9.82;;
14738;SDS011;7461;52.440;13.540;2023-09-12T14:55:13;17.40;;;11.13;;
14738;SDS011;7461;52.440;13.540;2023-09-12T14:57:43;14.20;;;11.23;;
14738;SDS011;7461;52.440;13.540;2023-09-12T15:00:28;17.45;;;12.35;;
14738;SDS011;7461;52.440;13.540;2023-09-12T15:02:58;11.63;;;10.77;;
14738;SDS011;7461;52.440;13.540;2023-09-12T15:05:26;12.85;;;11.40;;
14738;SDS011;7461;52.440;13.540;2023-09-12T15:07:56;12.35;;;10.18;;
14738;SDS011;7461;52.440;13.540;2023-09-12T15:10:25;12.27;;;10.98;;
14738;SDS011;7461;52.440;13.540;2023-09-12T15:13:00;11.98;;;10.88;;
14738;SDS011;7461;52.440;13.540;2023-09-12T15:15:38;11.13;;;10.32;;
14738;SDS011;7461;52.440;13.540;2023-09-12T15:18:20;13.98;;;10.07;;
14738;SDS011;7461;52.440;13.540;2023-09-12T15:20:53;17.48;;;9.77;;
14738;SDS011;7461;52.440;13.540;2023-09-12T15:26:20;5.25;;;4.95;;
14738;SDS011;7461;52.440;13.540;2023-09-12T15:28:54;5.63;;;5.22;;
14738;SDS011;7461;52.440;13.540;2023-09-12T15:31:38;6.13;;;5.78;;
14738;SDS011;7461;52.440;13.540;2023-09-12T15:34:06;7.20;;;6.60;;
14738;SDS011;7461;52.440;13.540;2023-09-12T15:36:36;6.38;;;5.82;;
14738;SDS011;7461;52.440;13.540;2023-09-12T15:39:04;7.38;;;6.82;;
14738;SDS011;7461;52.440;13.540;2023-09-12T15:41:40;15.70;;;14.18;;
14738;SDS011;7461;52.440;13.540;2023-09-12T15:44:13;7.72;;;7.07;;
14738;SDS011;7461;52.440;13.540;2023-09-12T15:46:48;7.40;;;6.80;;
14738;SDS011;7461;52.440;13.540;2023-09-12T15:49:24;8.10;;;6.70;;
14738;SDS011;7461;52.440;13.540;2023-09-12T15:51:54;11.70;;;6.05;;
14738;SDS011;7461;52.440;13.540;2023-09-12T15:54:25;9.70;;;9.00;;
14738;SDS011;7461;52.440;13.540;2023-09-12T15:56:55;12.57;;;11.45;;